Dornbirn, Austria
Current Conditions -  °F | °C
As of 10:20 AM on Saturday 29 Nov 2014 (Local Time) from LSZR Reporting Station
Overcast Overcast  
Wind Chill: 39°   Ceiling: 700
Heat Index: 39°   Visibility: 6mi
Dew Point: 37°   Wind: 2mph
Humidity: 93%   Direction: NA
Pressure: 29.91"   Gusts: NA
Location:  47.42°N, 9.74°E
Report Text: LSZR 290820Z VRB02KT 9999 OVC007 04/03 Q1013 NOSIG RMK C
Loading
Personal Weather Stations






























Interactive Weather Map New forecast layout! Learn more

10-Day Weather Forecast

Advertisements
Track Severe Weather on mobile